Aérodrome :
LOGIN :

S'inscrire | Disclaimer

   EN    FR    IT 

 










Légende :    VFR   VFR Marginal   IFR   IFR Intensif   IFR Très Intensif
Visi : 
Plafond : 
>= 8 km
>= 3000ft
5 à 8 km
1000 à 3000 ft
1500m à 5 km
500 à 1000 ft
800 à 1500m
200 à 500 ft
< 800m
< 200 ft
Symboles :   Orages  Brouillard  Fortes neiges  Fortes précipitations  Vent > 20 kt
SIGMETs :   Divers  Orages  Givrage  Turbulence  Onde Orograph.  Cendres Volcan.







- Altitude de l'aérodrome : 781 ft
- Code IATA : SKP


LWSK - Skopje

DERNIER METAR :
  • 161900Z 28005KT 250V330 9999 FEW040 SCT060 21/16 Q1014 NOSIG

METARs EXPIRÉS :
  • 161830Z 25006KT 220V300 9999 FEW040 SCT060 20/17 Q1014 NOSIG
  • 161800Z 32004KT 9999 -RA FEW040CB SCT060 20/17 Q1014 NOSIG
  • 161730Z 00000KT 9999 TS FEW040CB SCT060 21/16 Q1013 NOSIG
  • 161700Z 29006KT 260V350 9999 VCSH TS SCT030CB SCT043 20/16 Q1013 TEMPO TL1730 VRB15G25KT 5000 TSRA BKN030CB
  • 161630Z 34019G29KT 9999 -TSRA SCT033CB BKN056 20/16 Q1013 TEMPO TL1730 VRB20G35KT 3000 +TSRA BKN030CB

TAF COR TAF LWSK
Valide du 16 à 18h jusqu'au 17 à 18h UTC


161730Z 1618/1718 VRB03KT 9999 SCT040 SCT100
TEMPO 1618/1619 VRB20KT TSRA SCT030CB BKN040
Pas de NOTAMs connus pour ce terrain.



MET'MAP, la Météo Aéronautique d'un coup d'oeil ! - Copyright ORBIFLY Décembre 2007 - Disclaimer

ORBIFLY MET'MAP TEAM :

Programmation & Développement : Alexandra Zaïnal
Conception & Développement : Baudouin d'Aumeries
Co-Programmation & Développement : Marc-Olivier Méhu
Soutien technique & logistique : Manuel Goepfert

Contact : metmap@orbifly.com




SOURCES & CREDITS :

   NOAA